createdAt,value
2022-12-08T00:00:06.955Z,18.83
2022-12-08T00:01:08.671Z,19.85
2022-12-08T00:02:09.791Z,15.75
2022-12-08T00:03:11.290Z,20.90
2022-12-08T00:04:12.269Z,21.52
2022-12-08T00:05:31.437Z,20.13
2022-12-08T00:06:52.283Z,19.48
2022-12-08T00:08:11.488Z,18.38
2022-12-08T00:09:23.037Z,19.90
2022-12-08T00:10:47.677Z,21.73
2022-12-08T00:11:44.993Z,21.33
2022-12-08T00:12:46.483Z,21.63
2022-12-08T00:13:47.682Z,20.75
2022-12-08T00:14:49.213Z,22.00
2022-12-08T00:15:50.052Z,20.77
2022-12-08T00:16:51.469Z,20.85
2022-12-08T00:17:52.382Z,21.52
2022-12-08T00:18:53.589Z,21.27
2022-12-08T00:19:54.402Z,20.27
2022-12-08T00:20:55.605Z,14.98
2022-12-08T00:21:56.449Z,21.38
2022-12-08T00:22:57.617Z,20.73
2022-12-08T00:23:58.525Z,21.23
2022-12-08T00:24:59.665Z,21.08
2022-12-08T00:26:03.972Z,20.75
2022-12-08T00:27:05.569Z,22.45
2022-12-08T00:28:07.063Z,22.92
2022-12-08T00:29:10.920Z,21.55
2022-12-08T00:30:15.523Z,22.33
2022-12-08T00:31:17.005Z,23.60
2022-12-08T00:32:17.919Z,21.77
2022-12-08T00:33:19.126Z,22.50
2022-12-08T00:34:20.010Z,22.58
2022-12-08T00:35:21.266Z,15.02
2022-12-08T00:36:22.135Z,22.05
2022-12-08T00:37:23.279Z,21.20
2022-12-08T00:38:24.104Z,22.90
2022-12-08T00:39:25.312Z,23.75
2022-12-08T00:40:26.185Z,23.85
2022-12-08T00:41:45.719Z,16.90
2022-12-08T00:42:46.891Z,22.48
2022-12-08T00:43:48.386Z,24.40
2022-12-08T00:44:49.570Z,24.20
2022-12-08T00:45:50.493Z,25.25
2022-12-08T00:46:51.663Z,24.40
2022-12-08T00:47:52.665Z,23.98
2022-12-08T00:48:53.785Z,22.17
2022-12-08T00:49:54.961Z,22.50
2022-12-08T00:50:55.800Z,23.60
2022-12-08T00:51:56.968Z,24.25
2022-12-08T00:52:57.816Z,18.40
2022-12-08T00:53:58.992Z,21.85
2022-12-08T00:54:59.917Z,23.27
2022-12-08T00:56:01.086Z,23.85
2022-12-08T00:57:01.981Z,23.92
2022-12-08T00:58:03.139Z,22.87
2022-12-08T00:59:05.132Z,23.25
2022-12-08T01:01:09.327Z,18.45
2022-12-08T01:02:10.518Z,22.58
2022-12-08T01:03:11.535Z,19.60
2022-12-08T01:04:14.773Z,15.10
2022-12-08T01:05:15.757Z,22.20
2022-12-08T01:06:17.070Z,21.20
2022-12-08T01:07:17.894Z,21.45
2022-12-08T01:08:19.083Z,19.73
2022-12-08T01:09:19.956Z,20.25
2022-12-08T01:10:21.139Z,20.40
2022-12-08T01:11:21.954Z,22.48
2022-12-08T01:12:23.145Z,20.67
2022-12-08T01:13:23.954Z,22.95
2022-12-08T01:14:25.769Z,22.83
2022-12-08T01:15:26.650Z,24.10
2022-12-08T01:16:28.687Z,17.15
2022-12-08T01:17:29.627Z,24.27
2022-12-08T01:18:30.792Z,24.53
2022-12-08T01:19:31.937Z,22.25
2022-12-08T01:20:32.797Z,23.98
2022-12-08T01:21:33.944Z,18.15
2022-12-08T01:22:34.881Z,24.83
2022-12-08T01:23:36.035Z,22.92
2022-12-08T01:24:36.889Z,23.20
2022-12-08T01:25:38.085Z,23.50
2022-12-08T01:26:39.168Z,22.67
2022-12-08T01:27:40.301Z,23.00
2022-12-08T01:28:41.510Z,23.60
2022-12-08T01:29:43.310Z,22.55
2022-12-08T01:30:44.209Z,22.90
2022-12-08T01:31:45.489Z,23.10
2022-12-08T01:32:46.682Z,25.15
2022-12-08T01:33:48.583Z,26.08
2022-12-08T01:34:49.796Z,25.20
2022-12-08T01:35:50.685Z,24.08
2022-12-08T01:36:51.810Z,22.80
2022-12-08T01:37:52.633Z,22.75
2022-12-08T01:38:54.306Z,23.15
2022-12-08T01:39:55.448Z,23.60
2022-12-08T01:40:56.369Z,23.65
2022-12-08T01:41:57.502Z,21.33
2022-12-08T01:42:58.326Z,23.05
2022-12-08T01:44:01.041Z,23.37
2022-12-08T01:45:03.864Z,18.45
2022-12-08T01:46:05.257Z,22.17
2022-12-08T01:47:06.133Z,24.23
2022-12-08T01:48:08.972Z,18.30
2022-12-08T01:49:11.774Z,24.50
2022-12-08T01:50:14.501Z,24.55
2022-12-08T01:51:15.417Z,23.35
2022-12-08T01:52:19.547Z,26.27
2022-12-08T01:53:21.944Z,25.63
2022-12-08T01:54:24.601Z,25.60
2022-12-08T01:55:27.242Z,18.10
2022-12-08T01:56:32.173Z,23.08
2022-12-08T01:57:34.929Z,24.48
2022-12-08T01:58:37.137Z,26.00
2022-12-08T01:59:41.047Z,23.55
2022-12-08T02:00:43.032Z,17.90
2022-12-08T02:02:51.963Z,22.27
2022-12-08T02:03:55.878Z,24.92
2022-12-08T02:04:56.790Z,22.92
2022-12-08T02:05:58.153Z,25.27
2022-12-08T02:07:01.438Z,25.27
2022-12-08T02:08:07.319Z,25.70
2022-12-08T02:09:08.180Z,23.48
2022-12-08T02:10:10.741Z,25.30
2022-12-08T02:11:12.057Z,24.95
2022-12-08T02:12:13.312Z,26.17
2022-12-08T02:13:14.693Z,25.77
2022-12-08T02:14:15.890Z,17.90
2022-12-08T02:15:17.025Z,27.90
2022-12-08T02:16:25.868Z,25.02
2022-12-08T02:17:35.968Z,26.15
2022-12-08T02:18:43.084Z,26.02
2022-12-08T02:19:54.305Z,26.50
2022-12-08T02:20:58.426Z,25.95
2022-12-08T02:22:01.071Z,26.27
2022-12-08T02:23:06.494Z,23.63
2022-12-08T02:24:12.605Z,25.25
2022-12-08T02:25:20.909Z,18.42
2022-12-08T02:26:40.828Z,23.60
2022-12-08T02:27:46.800Z,24.38
2022-12-08T02:29:05.513Z,24.50
2022-12-08T02:30:12.140Z,22.30
2022-12-08T02:31:19.116Z,24.73
2022-12-08T02:32:31.165Z,17.15
2022-12-08T02:34:02.485Z,24.45
2022-12-08T02:35:09.966Z,25.13
2022-12-08T02:36:14.422Z,23.58
2022-12-08T02:37:17.368Z,23.25
2022-12-08T02:38:21.519Z,16.20
2022-12-08T02:39:26.612Z,22.80
2022-12-08T02:40:29.548Z,20.70
2022-12-08T02:41:35.761Z,22.67
2022-12-08T02:42:39.667Z,23.50
2022-12-08T02:43:41.906Z,23.75
2022-12-08T02:44:45.803Z,17.83
2022-12-08T02:45:48.284Z,24.08
2022-12-08T02:46:51.378Z,24.77
2022-12-08T02:47:52.525Z,24.40
2022-12-08T02:48:55.415Z,16.98
2022-12-08T02:49:57.217Z,24.95
2022-12-08T02:50:59.142Z,22.42
2022-12-08T02:52:07.150Z,23.23
2022-12-08T02:54:09.214Z,20.60
2022-12-08T02:55:18.447Z,22.63
2022-12-08T02:56:29.167Z,23.38
2022-12-08T02:57:35.894Z,20.38
2022-12-08T02:58:57.776Z,24.67
2022-12-08T03:00:05.654Z,24.33
2022-12-08T03:01:12.254Z,24.02
2022-12-08T03:02:22.293Z,25.27
2022-12-08T03:03:28.654Z,19.40
2022-12-08T03:04:33.831Z,22.45
2022-12-08T09:19:16.659Z,35.21
2022-12-08T09:21:19.625Z,32.38
2022-12-08T09:23:22.100Z,25.52
2022-12-08T09:24:23.305Z,36.73
2022-12-08T09:25:24.161Z,23.20
2022-12-08T09:26:25.881Z,32.30
2022-12-08T09:27:27.039Z,35.10
2022-12-08T09:28:27.874Z,36.90
2022-12-08T09:29:35.411Z,36.93
2022-12-08T09:30:37.262Z,27.48
2022-12-08T09:31:38.673Z,34.08
2022-12-08T09:32:40.108Z,30.05
2022-12-08T09:33:40.993Z,35.83
2022-12-08T09:34:45.365Z,33.95
2022-12-08T09:35:50.170Z,31.30
2022-12-08T09:36:51.036Z,30.88
2022-12-08T09:37:52.187Z,28.10
2022-12-08T09:38:53.924Z,31.40
2022-12-08T09:39:55.157Z,32.83
2022-12-08T09:40:56.385Z,24.13
2022-12-08T09:41:59.313Z,30.20
2022-12-08T09:43:04.628Z,31.30
2022-12-08T09:44:16.333Z,29.92
2022-12-08T09:45:18.061Z,28.00
2022-12-08T09:46:19.607Z,25.80
2022-12-08T09:47:21.767Z,30.67
2022-12-08T09:48:23.992Z,31.55
2022-12-08T09:49:29.810Z,29.33
2022-12-08T09:50:33.493Z,32.75
2022-12-08T09:51:37.322Z,30.42
2022-12-08T09:52:41.089Z,31.17
2022-12-08T09:53:45.069Z,37.33
2022-12-08T09:54:46.004Z,33.35
2022-12-08T09:55:50.180Z,33.97
2022-12-08T09:56:53.387Z,37.40
2022-12-08T09:57:59.530Z,26.13
2022-12-08T09:59:02.088Z,35.80
2022-12-08T10:00:06.073Z,35.65
2022-12-08T10:01:08.404Z,29.42
2022-12-08T10:02:19.175Z,33.65
2022-12-08T10:03:22.185Z,32.65
2022-12-08T10:04:25.669Z,30.88
2022-12-08T10:05:27.997Z,31.70
2022-12-08T10:06:31.452Z,30.95
2022-12-08T10:07:37.288Z,23.00
2022-12-08T10:08:41.878Z,30.88
2022-12-08T10:09:44.975Z,34.25
2022-12-08T10:10:47.279Z,22.08
2022-12-08T10:11:51.302Z,30.13
2022-12-08T10:12:54.376Z,34.30
2022-12-08T10:13:58.615Z,35.92
2022-12-08T10:15:07.883Z,29.73
2022-12-08T10:16:21.987Z,27.25
2022-12-08T10:17:26.452Z,20.67
2022-12-08T10:18:28.388Z,29.40
2022-12-08T10:20:35.299Z,33.00
2022-12-08T10:21:39.053Z,27.60
2022-12-08T10:22:44.748Z,30.35
2022-12-08T10:23:48.270Z,34.05
2022-12-08T10:24:55.666Z,32.60
2022-12-08T10:26:00.336Z,36.05
2022-12-08T10:27:01.849Z,32.60
2022-12-08T10:28:03.068Z,39.67
2022-12-08T10:29:05.760Z,36.67
2022-12-08T10:30:09.847Z,34.15
2022-12-08T10:31:15.203Z,36.95
2022-12-08T10:32:17.812Z,34.88
2022-12-08T10:33:19.617Z,31.40
2022-12-08T10:34:22.473Z,32.15
2022-12-08T10:35:24.647Z,24.45
2022-12-08T10:36:44.008Z,34.33
2022-12-08T10:37:54.264Z,32.10
2022-12-08T10:38:55.469Z,31.42
2022-12-08T10:40:00.817Z,31.80
2022-12-08T10:41:04.231Z,32.05
2022-12-08T10:42:16.330Z,37.22
2022-12-08T10:43:18.569Z,33.75
2022-12-08T10:44:19.789Z,61.30
2022-12-08T10:45:23.032Z,73.28
2022-12-08T10:46:25.227Z,38.85
2022-12-08T10:47:27.028Z,30.70
2022-12-08T10:48:30.423Z,22.00
2022-12-08T10:49:31.734Z,29.10
2022-12-08T10:50:34.715Z,32.70
2022-12-08T10:51:37.266Z,44.53
2022-12-08T10:52:38.678Z,36.47
2022-12-08T10:53:45.550Z,31.50
2022-12-08T10:54:51.127Z,22.55
2022-12-08T10:55:53.222Z,30.05
2022-12-08T10:56:54.685Z,59.33
2022-12-08T10:57:55.818Z,38.67
2022-12-08T10:59:11.520Z,32.53
2022-12-08T11:00:14.420Z,35.13
2022-12-08T11:01:18.132Z,34.67
2022-12-08T11:02:19.559Z,37.03
2022-12-08T11:03:22.837Z,45.08
2022-12-08T11:04:29.940Z,42.42
2022-12-08T11:05:31.789Z,35.55
2022-12-08T11:06:34.804Z,35.50
2022-12-08T11:07:35.968Z,32.85
2022-12-08T11:08:43.706Z,38.70
2022-12-08T11:09:48.290Z,33.35
2022-12-08T11:10:49.251Z,35.20
2022-12-08T11:11:51.338Z,37.40
2022-12-08T11:12:52.358Z,55.88
2022-12-08T11:13:53.618Z,39.47
2022-12-08T11:14:57.358Z,94.00
2022-12-08T11:15:59.079Z,38.65
2022-12-08T11:17:03.853Z,33.20
2022-12-08T11:18:09.749Z,29.77
2022-12-08T11:19:14.424Z,28.42
2022-12-08T11:20:20.666Z,31.55
2022-12-08T11:21:29.860Z,35.40
2022-12-08T11:22:32.012Z,32.58
2022-12-08T11:23:35.309Z,32.83
2022-12-08T11:24:37.825Z,33.33
2022-12-08T17:40:18.842Z,23.72
2022-12-08T17:42:25.113Z,20.27
2022-12-08T17:43:25.926Z,22.75
2022-12-08T17:44:27.720Z,34.73
2022-12-08T17:45:28.621Z,25.30
2022-12-08T17:46:29.839Z,29.73
2022-12-08T17:47:30.729Z,24.58
2022-12-08T17:48:34.004Z,25.57
2022-12-08T17:49:34.839Z,32.70
2022-12-08T17:50:37.644Z,28.40
2022-12-08T17:51:38.777Z,29.90
2022-12-08T17:52:39.933Z,22.20
2022-12-08T17:53:40.834Z,26.45
2022-12-08T17:54:42.003Z,30.70
2022-12-08T17:55:50.695Z,20.17
2022-12-08T17:56:51.879Z,28.83
2022-12-08T17:57:52.755Z,30.05
2022-12-08T17:58:55.013Z,25.45
2022-12-08T17:59:56.404Z,30.35
2022-12-08T18:00:57.662Z,29.10
2022-12-08T18:01:58.914Z,27.92
2022-12-08T18:03:00.106Z,34.13
2022-12-08T18:04:01.861Z,29.45
2022-12-08T18:05:02.798Z,24.17
2022-12-08T18:06:04.451Z,29.40
2022-12-08T18:07:05.297Z,29.42
2022-12-08T18:08:06.545Z,29.70
2022-12-08T18:09:07.800Z,26.48
2022-12-08T18:10:09.289Z,19.60
2022-12-08T18:11:11.866Z,30.08
2022-12-08T18:12:13.038Z,29.02
2022-12-08T18:13:13.860Z,27.58
2022-12-08T18:14:15.272Z,29.10
2022-12-08T18:15:17.544Z,32.60
2022-12-08T18:16:19.815Z,24.30
2022-12-08T18:17:20.825Z,35.47
2022-12-08T18:18:22.270Z,18.97
2022-12-08T18:19:23.102Z,28.42
2022-12-08T18:20:24.332Z,31.13
2022-12-08T18:21:25.187Z,30.67
2022-12-08T18:22:26.602Z,32.20
2022-12-08T18:23:27.461Z,28.48
2022-12-08T18:24:28.682Z,19.67
2022-12-08T18:25:29.624Z,33.55
2022-12-08T18:26:31.560Z,33.13
2022-12-08T18:28:33.535Z,21.00
2022-12-08T18:29:34.693Z,24.85
2022-12-08T18:30:36.081Z,31.83
2022-12-08T18:31:37.282Z,35.78
2022-12-08T18:32:38.101Z,28.85
2022-12-08T18:33:40.160Z,30.40
2022-12-08T18:34:41.313Z,24.42
2022-12-08T18:35:42.167Z,30.95
2022-12-08T18:36:43.335Z,28.90
2022-12-08T18:37:44.940Z,30.25
2022-12-08T18:38:46.358Z,34.67
2022-12-08T18:40:06.183Z,34.40
2022-12-08T18:41:08.279Z,30.27
2022-12-08T18:43:23.942Z,32.40
2022-12-08T18:44:24.864Z,36.85
2022-12-08T18:45:26.261Z,29.50
2022-12-08T18:46:27.444Z,26.02
2022-12-08T18:47:28.429Z,32.13
2022-12-08T18:48:29.643Z,28.88
2022-12-08T18:49:30.758Z,37.13
2022-12-08T18:50:31.581Z,32.42
2022-12-08T18:51:32.722Z,33.50
2022-12-08T18:52:33.667Z,30.40
2022-12-08T18:53:34.810Z,30.13
2022-12-08T18:54:58.224Z,29.00
2022-12-08T18:55:57.408Z,26.55
2022-12-08T18:56:58.237Z,27.83
2022-12-08T18:57:59.413Z,30.02
2022-12-08T18:59:03.951Z,32.53
2022-12-08T19:00:06.359Z,28.90
2022-12-08T19:01:12.858Z,31.27
2022-12-08T19:02:14.061Z,41.53
2022-12-08T19:03:15.270Z,34.83
2022-12-08T19:04:34.693Z,30.45
2022-12-08T19:05:37.810Z,53.35
2022-12-08T19:06:39.102Z,33.35
2022-12-08T19:07:41.951Z,33.30
2022-12-08T19:08:42.946Z,40.35
2022-12-08T19:09:44.137Z,46.30
2022-12-08T19:10:45.267Z,109.28
2022-12-08T19:11:46.133Z,39.95
2022-12-08T19:12:49.093Z,63.72
2022-12-08T19:13:50.041Z,71.40
2022-12-08T19:14:51.852Z,75.30
2022-12-08T19:15:52.750Z,84.07
2022-12-08T19:16:53.982Z,64.40
2022-12-08T19:17:55.138Z,47.42
2022-12-08T19:18:56.240Z,53.00
